createdAt,value
2017-11-09T10:25:20.289Z,1492
2017-11-09T10:25:35.627Z,1500
2017-11-09T10:25:54.700Z,1500
2017-11-09T10:26:06.366Z,1496
2017-11-09T10:26:20.447Z,1496
2017-11-09T10:26:32.294Z,1492
2017-11-09T10:26:43.855Z,1488
2017-11-09T10:26:55.408Z,1488
2017-11-09T10:27:10.930Z,1476
2017-11-09T10:27:29.789Z,1480
2017-11-09T10:27:45.182Z,1488
2017-11-09T10:28:25.597Z,1488
2017-11-09T10:28:38.029Z,1484
2017-11-09T10:28:49.716Z,1476
2017-11-09T10:29:05.108Z,1464
2017-11-09T10:29:17.391Z,1452
2017-11-09T10:29:44.712Z,1428
2017-11-09T10:29:56.558Z,1388
2017-11-09T10:30:11.995Z,1360
2017-11-09T10:30:24.287Z,1340
2017-11-09T10:30:40.070Z,1312
2017-11-09T10:30:52.363Z,1284
2017-11-09T10:31:07.871Z,1252
2017-11-09T10:31:24.238Z,1224
2017-11-09T10:31:36.723Z,1200
2017-11-09T10:31:52.077Z,1176
2017-11-09T10:32:04.569Z,1164
2017-11-09T10:32:19.257Z,1144
2017-11-09T10:32:30.698Z,1128
2017-11-09T10:32:42.370Z,1116
2017-11-09T10:32:53.857Z,1100
2017-11-09T10:33:05.496Z,1088
2017-11-09T10:33:20.854Z,1068
2017-11-09T10:33:33.128Z,1060
2017-11-09T10:33:48.809Z,1044
2017-11-09T10:34:05.294Z,1032
2017-11-09T10:34:21.426Z,1020
2017-11-09T10:34:33.813Z,1012
2017-11-09T10:35:15.794Z,1016
2017-11-09T10:35:27.813Z,1024
2017-11-09T10:35:38.801Z,1028
2017-11-09T10:35:50.446Z,1032
2017-11-09T10:36:01.979Z,1036
2017-11-09T10:36:30.912Z,1044
2017-11-09T10:36:55.380Z,1076
2017-11-09T10:37:07.636Z,1084
2017-11-09T10:37:24.307Z,1104
2017-11-09T10:37:36.674Z,1112
2017-11-09T10:37:48.257Z,1116
2017-11-09T10:37:59.920Z,1120
2017-11-09T10:38:11.390Z,1116
2017-11-09T10:38:27.084Z,1108
2017-11-09T10:38:39.170Z,1104
2017-11-09T10:38:51.515Z,1100
2017-11-09T10:39:07.275Z,1088
2017-11-09T10:39:22.569Z,1076
2017-11-09T10:39:38.972Z,1060
2017-11-09T10:39:51.227Z,1048
2017-11-09T10:40:06.984Z,1040
2017-11-09T10:40:23.837Z,1028
2017-11-09T10:40:39.608Z,1024
2017-11-09T10:40:55.843Z,1008
2017-11-09T10:41:08.154Z,1000
2017-11-09T10:41:23.736Z,984
2017-11-09T10:41:40.026Z,972
2017-11-09T10:41:52.516Z,960
2017-11-09T10:42:03.984Z,952
2017-11-09T10:42:19.809Z,936
2017-11-09T10:42:31.927Z,928
2017-11-09T10:42:47.419Z,916
2017-11-09T10:43:00.871Z,912
2017-11-09T10:43:16.883Z,912
2017-11-09T10:43:33.294Z,904
2017-11-09T10:43:49.560Z,896
2017-11-09T10:44:06.185Z,888
2017-11-09T10:44:18.301Z,884
2017-11-09T10:44:33.952Z,880
2017-11-09T10:44:50.501Z,880
2017-11-09T10:45:06.640Z,872
2017-11-09T10:45:22.837Z,868
2017-11-09T10:45:35.151Z,860
2017-11-09T10:45:50.926Z,856
2017-11-09T10:46:07.091Z,848
2017-11-09T10:46:19.555Z,840
2017-11-09T10:46:35.034Z,832
2017-11-09T10:47:01.435Z,824
2017-11-09T10:47:13.421Z,812
2017-11-09T10:47:29.000Z,812
2017-11-09T10:47:45.317Z,808
2017-11-09T10:47:57.610Z,812
2017-11-09T10:48:09.078Z,808
2017-11-09T10:48:20.591Z,808
2017-11-09T10:48:32.221Z,804
2017-11-09T10:48:43.852Z,804
2017-11-09T10:48:55.557Z,804
2017-11-09T10:49:07.270Z,808
2017-11-09T10:49:22.528Z,804
2017-11-09T10:49:39.281Z,808
2017-11-09T10:49:56.259Z,812
2017-11-09T10:50:12.056Z,828
2017-11-09T10:50:24.681Z,844
2017-11-09T10:50:37.994Z,864
2017-11-09T10:50:55.713Z,900
2017-11-09T10:51:08.460Z,924
2017-11-09T10:51:20.192Z,940
2017-11-09T10:51:36.854Z,956
2017-11-09T10:51:49.292Z,960
2017-11-09T10:52:00.797Z,968
2017-11-09T10:52:24.968Z,964
2017-11-09T10:52:40.973Z,960
2017-11-09T10:52:54.285Z,960
2017-11-09T10:53:06.895Z,960
2017-11-09T10:53:19.953Z,964
2017-11-09T10:53:32.847Z,960
2017-11-09T10:53:43.971Z,964
2017-11-09T10:53:55.549Z,960
2017-11-09T10:54:11.155Z,960
2017-11-09T10:54:33.332Z,956
2017-11-09T10:54:44.654Z,956
2017-11-09T10:54:56.140Z,956
2017-11-09T10:55:11.816Z,948
2017-11-09T10:55:23.999Z,948
2017-11-09T10:55:46.648Z,944
2017-11-09T10:55:58.613Z,948
2017-11-09T10:56:10.045Z,944
2017-11-09T10:56:21.387Z,948
2017-11-09T10:56:32.933Z,948
2017-11-09T10:56:44.615Z,948
2017-11-09T10:56:56.124Z,952
2017-11-09T10:57:07.889Z,956
2017-11-09T10:57:19.294Z,952
2017-11-09T10:57:30.869Z,952
2017-11-09T10:57:43.283Z,956
2017-11-09T10:57:59.857Z,960
2017-11-09T10:58:12.240Z,956
2017-11-09T10:58:27.288Z,956
2017-11-09T10:58:39.694Z,956
2017-11-09T10:58:55.457Z,956
2017-11-09T10:59:07.668Z,960
2017-11-09T10:59:19.140Z,960
2017-11-09T10:59:30.855Z,960
2017-11-09T10:59:42.409Z,968
2017-11-09T10:59:53.918Z,972
2017-11-09T11:00:05.396Z,980
2017-11-09T11:00:16.882Z,984
2017-11-09T11:00:28.453Z,992
2017-11-09T11:00:40.047Z,1000
2017-11-09T11:00:51.587Z,1008
2017-11-09T11:01:03.214Z,1012
2017-11-09T11:01:18.803Z,1020
2017-11-09T11:01:31.251Z,1024
2017-11-09T11:01:42.741Z,1032
2017-11-09T11:01:55.240Z,1036
2017-11-09T11:02:11.423Z,1044
2017-11-09T11:02:27.774Z,1048
2017-11-09T11:02:40.810Z,1048
2017-11-09T11:02:57.150Z,1048
2017-11-09T11:03:14.455Z,1048
2017-11-09T11:03:25.845Z,1044
2017-11-09T11:03:37.459Z,1040
2017-11-09T11:04:01.172Z,1040
2017-11-09T11:04:13.354Z,1036
2017-11-09T11:04:25.107Z,1036
2017-11-09T11:04:36.474Z,1036
2017-11-09T11:04:48.090Z,1032
2017-11-09T11:05:02.123Z,1032
2017-11-09T11:05:14.335Z,1032
2017-11-09T11:05:29.788Z,1028
2017-11-09T11:05:42.311Z,1032
2017-11-09T11:05:53.797Z,1028
2017-11-09T11:06:17.003Z,1032
2017-11-09T11:06:29.598Z,1032
2017-11-09T11:06:45.050Z,1028
2017-11-09T11:07:01.558Z,1028
2017-11-09T11:07:14.748Z,1028
2017-11-09T11:07:30.904Z,1028
2017-11-09T11:07:43.455Z,1028
2017-11-09T11:07:58.949Z,1032
2017-11-09T11:08:15.859Z,1028
2017-11-09T11:08:31.594Z,1020
2017-11-09T11:08:43.897Z,1020
2017-11-09T11:08:59.615Z,1008
2017-11-09T11:09:15.952Z,996
2017-11-09T11:09:32.627Z,984
2017-11-09T11:09:48.541Z,972
2017-11-09T11:10:00.998Z,960
2017-11-09T11:10:16.385Z,948
2017-11-09T11:10:28.934Z,940
2017-11-09T11:10:44.229Z,932
2017-11-09T11:10:56.800Z,924
2017-11-09T11:11:12.169Z,916
2017-11-09T11:11:28.741Z,908
2017-11-09T11:11:54.923Z,896
2017-11-09T11:12:06.905Z,884
2017-11-09T11:12:22.527Z,880
2017-11-09T11:12:34.777Z,876
2017-11-09T11:12:46.521Z,876
2017-11-09T11:12:58.160Z,872
2017-11-09T11:13:09.674Z,868
2017-11-09T11:13:21.104Z,868
2017-11-09T11:13:33.127Z,864
2017-11-09T11:13:50.077Z,864
2017-11-09T11:14:06.129Z,868
2017-11-09T11:14:19.618Z,856
2017-11-09T11:14:35.612Z,876
2017-11-09T11:14:53.407Z,888
2017-11-09T11:15:06.904Z,900
2017-11-09T11:15:19.696Z,908
2017-11-09T11:15:32.362Z,912
2017-11-09T11:15:44.444Z,920
2017-11-09T11:15:57.088Z,924
2017-11-09T11:16:08.782Z,932
2017-11-09T11:16:22.586Z,936
2017-11-09T11:16:34.909Z,936
2017-11-09T11:16:46.437Z,944
2017-11-09T11:16:57.950Z,944
2017-11-09T11:17:09.559Z,948
2017-11-09T11:17:21.079Z,952
2017-11-09T11:17:36.520Z,952
2017-11-09T11:17:48.878Z,960
2017-11-09T11:18:16.756Z,964
2017-11-09T11:18:31.996Z,976
2017-11-09T11:18:44.221Z,976
2017-11-09T11:18:55.794Z,980
2017-11-09T11:19:07.614Z,980
2017-11-09T11:19:32.073Z,988
2017-11-09T11:19:43.295Z,988
2017-11-09T11:19:54.932Z,988
2017-11-09T11:20:10.369Z,992
2017-11-09T11:20:22.817Z,992
2017-11-09T11:20:34.412Z,992
2017-11-09T11:20:45.760Z,992
2017-11-09T11:21:11.495Z,992
2017-11-09T11:21:23.360Z,988
2017-11-09T11:21:34.878Z,988
2017-11-09T11:21:46.419Z,988
2017-11-09T11:21:57.981Z,984
2017-11-09T11:22:10.350Z,988
2017-11-09T11:22:26.706Z,988
2017-11-09T11:22:39.098Z,988
2017-11-09T11:22:50.682Z,988
2017-11-09T11:23:27.991Z,988
2017-11-09T11:23:39.463Z,984
2017-11-09T11:23:51.066Z,980
2017-11-09T11:24:06.756Z,976
2017-11-09T11:24:18.861Z,972
2017-11-09T11:24:30.432Z,972
2017-11-09T11:24:51.980Z,968
2017-11-09T11:25:04.660Z,964
2017-11-09T11:25:16.342Z,960
2017-11-09T11:25:34.515Z,956
2017-11-09T11:25:45.908Z,960
2017-11-09T11:26:01.568Z,956
2017-11-09T11:26:13.719Z,956
2017-11-09T11:26:25.304Z,956
2017-11-09T11:26:36.734Z,956
2017-11-09T11:26:48.477Z,956
2017-11-09T11:26:59.982Z,956
2017-11-09T11:27:15.461Z,956
2017-11-09T11:27:28.020Z,960
2017-11-09T11:27:39.424Z,960
2017-11-09T11:28:09.900Z,964
2017-11-09T11:28:21.634Z,968
2017-11-09T11:28:33.186Z,968
2017-11-09T11:28:44.728Z,972
2017-11-09T11:29:00.329Z,980
2017-11-09T11:29:12.609Z,984
2017-11-09T11:29:28.200Z,988
2017-11-09T11:29:44.442Z,992
2017-11-09T11:29:56.847Z,996
2017-11-09T11:30:08.403Z,1000
2017-11-09T11:30:19.992Z,1004
2017-11-09T11:30:31.685Z,1008
2017-11-09T11:30:43.032Z,1012
2017-11-09T11:30:54.618Z,1012
2017-11-09T11:31:06.188Z,1012
2017-11-09T11:31:34.756Z,1016
2017-11-09T11:31:46.968Z,1016
2017-11-09T11:31:58.608Z,1012
2017-11-09T11:32:10.171Z,1008
2017-11-09T11:32:25.631Z,1004
2017-11-09T11:32:42.595Z,1000
2017-11-09T11:32:54.471Z,996
2017-11-09T11:33:05.788Z,992
2017-11-09T11:33:17.449Z,988
2017-11-09T11:33:28.944Z,984
2017-11-09T11:33:42.957Z,976
2017-11-09T11:34:08.016Z,972
2017-11-09T11:34:19.550Z,960
2017-11-09T11:34:35.190Z,960
2017-11-09T11:34:51.257Z,952
2017-11-09T11:35:08.341Z,944
2017-11-09T11:35:20.104Z,944
2017-11-09T11:35:31.724Z,940
2017-11-09T11:35:47.504Z,940
2017-11-09T11:35:59.669Z,936
2017-11-09T11:36:11.159Z,928
2017-11-09T11:36:22.880Z,928
2017-11-09T11:36:34.405Z,928
2017-11-09T11:36:49.934Z,924
2017-11-09T11:37:02.242Z,924
2017-11-09T11:37:13.960Z,924
2017-11-09T11:37:29.573Z,924
2017-11-09T11:37:41.725Z,928
2017-11-09T11:37:53.233Z,928
2017-11-09T11:38:08.705Z,932
2017-11-09T11:38:21.341Z,932
2017-11-09T11:38:36.677Z,932
2017-11-09T11:38:49.602Z,936
2017-11-09T11:39:02.280Z,940
2017-11-09T11:39:17.772Z,940
2017-11-09T11:39:30.386Z,944
2017-11-09T11:39:46.302Z,948
2017-11-09T11:39:58.055Z,948
2017-11-09T11:40:13.644Z,952
2017-11-09T11:40:25.895Z,956
2017-11-09T11:40:52.868Z,952
2017-11-09T11:41:05.014Z,948
2017-11-09T11:41:20.509Z,948
2017-11-09T11:41:36.814Z,944
2017-11-09T11:43:00.194Z,924
2017-11-09T11:43:11.605Z,920
2017-11-09T11:43:23.147Z,920
2017-11-09T11:43:34.679Z,920
2017-11-09T11:43:46.088Z,920
2017-11-09T11:43:57.695Z,920
2017-11-09T11:44:09.276Z,920
2017-11-09T11:44:24.957Z,924
2017-11-09T11:44:37.244Z,924
2017-11-09T11:44:48.918Z,928
2017-11-09T11:45:00.265Z,932
2017-11-09T11:45:15.792Z,940
2017-11-09T11:45:32.167Z,944
2017-11-09T11:45:44.454Z,948
2017-11-09T11:45:56.080Z,956
2017-11-09T11:46:11.643Z,956
2017-11-09T11:46:23.954Z,964
2017-11-09T11:46:40.664Z,968
2017-11-09T11:46:52.056Z,968
2017-11-09T11:47:03.424Z,976
2017-11-09T11:47:18.919Z,976
2017-11-09T11:47:31.276Z,980
2017-11-09T11:47:42.931Z,980
2017-11-09T11:47:54.511Z,984
2017-11-09T11:48:06.449Z,984
2017-11-09T11:48:17.568Z,988
2017-11-09T11:48:29.117Z,988
2017-11-09T11:48:40.527Z,988
2017-11-09T11:48:52.240Z,988
2017-11-09T11:49:07.709Z,984
2017-11-09T11:49:24.176Z,980
2017-11-09T11:49:40.487Z,980
2017-11-09T11:49:52.845Z,976
2017-11-09T11:50:04.741Z,968
2017-11-09T11:50:16.209Z,968
2017-11-09T11:50:31.622Z,960
2017-11-09T11:50:44.164Z,956
2017-11-09T11:50:55.532Z,956
2017-11-09T11:51:07.187Z,948
2017-11-09T11:51:22.473Z,936
2017-11-09T11:51:41.418Z,932
2017-11-09T11:51:52.871Z,924
2017-11-09T11:52:04.493Z,920
2017-11-09T11:52:16.862Z,916
2017-11-09T11:52:29.008Z,912
2017-11-09T11:52:40.596Z,912
2017-11-09T11:52:52.233Z,908
2017-11-09T11:53:03.800Z,908
2017-11-09T11:53:15.281Z,908
2017-11-09T11:53:30.802Z,904
2017-11-09T11:57:29.200Z,900
2017-11-09T11:57:40.369Z,896
2017-11-09T11:57:51.971Z,900
2017-11-09T11:58:07.450Z,900
2017-11-09T11:58:19.914Z,904
2017-11-09T11:59:33.236Z,944
2017-11-09T11:59:49.276Z,956
2017-11-09T12:00:01.676Z,960
2017-11-09T12:00:13.249Z,964
2017-11-09T12:00:29.483Z,972
2017-11-09T12:00:42.076Z,980
2017-11-09T12:01:04.199Z,988
2017-11-09T12:01:19.460Z,1000
2017-11-09T12:01:36.475Z,1008
2017-11-09T12:01:52.074Z,1012
2017-11-09T12:02:08.679Z,1016
2017-11-09T12:02:20.882Z,1016
2017-11-09T12:02:32.402Z,1016
2017-11-09T12:02:48.034Z,1012
2017-11-09T12:03:00.900Z,1012
2017-11-09T12:03:13.576Z,1008
2017-11-09T12:03:29.114Z,1004
2017-11-09T12:03:41.381Z,1000
2017-11-09T12:03:53.074Z,1000
2017-11-09T12:04:04.743Z,996
2017-11-09T12:04:16.068Z,992
2017-11-09T12:04:27.684Z,984
2017-11-09T12:04:43.295Z,976
2017-11-09T12:04:55.709Z,972
2017-11-09T12:05:07.260Z,968
2017-11-09T12:05:22.569Z,964
2017-11-09T12:05:35.048Z,956
2017-11-09T12:05:46.702Z,952
2017-11-09T12:05:58.621Z,952
2017-11-09T12:06:16.107Z,948
2017-11-09T12:06:28.210Z,948
2017-11-09T12:06:40.979Z,944
2017-11-09T12:06:52.424Z,944
2017-11-09T12:07:04.876Z,940
2017-11-09T12:07:20.994Z,936
2017-11-09T12:07:33.430Z,936
2017-11-09T12:07:44.944Z,928
2017-11-09T12:07:56.616Z,920
2017-11-09T12:08:08.167Z,920
2017-11-09T12:08:19.500Z,908
2017-11-09T12:08:31.128Z,904
2017-11-09T12:08:42.697Z,900
2017-11-09T12:08:54.301Z,892
2017-11-09T12:09:15.770Z,888
2017-11-09T12:09:27.496Z,872
2017-11-09T12:09:44.168Z,868
2017-11-09T12:10:00.496Z,860
2017-11-09T12:10:13.055Z,856
2017-11-09T12:16:48.598Z,852
2017-11-09T12:17:09.893Z,844
2017-11-09T12:17:21.013Z,836
2017-11-09T12:17:32.682Z,828
2017-11-09T12:17:44.176Z,824
2017-11-09T12:17:55.865Z,816
2017-11-09T12:18:07.372Z,812
2017-11-09T12:18:22.783Z,800
2017-11-09T12:18:35.190Z,792
2017-11-09T12:18:46.728Z,788
2017-11-09T12:18:58.318Z,776
2017-11-09T12:19:10.032Z,772
2017-11-09T12:19:25.381Z,764
2017-11-09T12:19:37.748Z,756
2017-11-09T12:19:53.236Z,748
2017-11-09T12:20:05.800Z,748
2017-11-09T12:20:17.208Z,744
2017-11-09T12:20:32.730Z,744
2017-11-09T12:20:49.110Z,744
2017-11-09T12:21:01.472Z,740
2017-11-09T12:21:13.228Z,744
2017-11-09T12:21:24.928Z,744
2017-11-09T12:21:36.070Z,748
2017-11-09T12:21:51.679Z,748
2017-11-09T12:22:08.131Z,752
2017-11-09T12:22:22.856Z,752
2017-11-09T12:23:00.163Z,756
2017-11-09T12:23:17.181Z,768
2017-11-09T12:23:28.736Z,768
2017-11-09T12:23:40.166Z,776
2017-11-09T12:23:55.891Z,780
2017-11-09T12:24:12.142Z,788
2017-11-09T12:24:28.612Z,792
2017-11-09T12:24:44.891Z,800
2017-11-09T12:24:57.406Z,804
2017-11-09T12:25:12.805Z,804
2017-11-09T12:25:25.951Z,808
2017-11-09T12:25:38.348Z,812
2017-11-09T12:25:49.835Z,812
2017-11-09T12:26:01.366Z,812
2017-11-09T12:26:13.102Z,816
2017-11-09T12:26:28.703Z,816
2017-11-09T12:26:40.989Z,816
2017-11-09T12:26:52.414Z,820
2017-11-09T12:27:08.024Z,820
2017-11-09T12:27:24.380Z,812
2017-11-09T12:27:40.844Z,816
2017-11-09T12:28:03.545Z,808
2017-11-09T12:28:21.116Z,808
2017-11-09T12:28:38.213Z,800
2017-11-09T12:29:01.605Z,796
2017-11-09T12:29:12.786Z,792
2017-11-09T12:29:24.434Z,788
2017-11-09T12:29:35.910Z,784
2017-11-09T12:29:51.636Z,784
2017-11-09T12:30:03.967Z,780
2017-11-09T12:30:19.359Z,780
2017-11-09T12:30:31.731Z,776
2017-11-09T12:30:43.388Z,780
2017-11-09T12:31:10.368Z,784
2017-11-09T12:31:26.416Z,784
2017-11-09T12:31:38.745Z,788
2017-11-09T12:31:54.375Z,788
2017-11-09T12:32:06.730Z,792
2017-11-09T12:32:30.472Z,800
2017-11-09T12:32:42.699Z,804
2017-11-09T12:32:54.139Z,800
2017-11-09T12:33:09.685Z,804
2017-11-09T12:33:26.132Z,808
2017-11-09T12:33:42.593Z,816
2017-11-09T12:33:58.914Z,820
2017-11-09T12:34:15.065Z,824
2017-11-09T12:34:31.533Z,828
2017-11-09T12:34:47.431Z,828
2017-11-09T12:34:58.691Z,828
2017-11-09T12:35:14.203Z,832
2017-11-09T12:35:26.602Z,828
2017-11-09T12:35:38.210Z,832
2017-11-09T12:35:49.542Z,832
2017-11-09T12:36:01.202Z,836
2017-11-09T12:36:12.763Z,836
2017-11-09T12:36:28.341Z,832
2017-11-09T12:36:40.832Z,836
2017-11-09T12:36:52.158Z,836
2017-11-09T12:37:08.652Z,836
2017-11-09T12:37:24.069Z,836
2017-11-09T12:37:40.558Z,840
2017-11-09T12:37:53.054Z,836
2017-11-09T12:38:04.386Z,836
2017-11-09T12:38:19.959Z,840
2017-11-09T12:38:32.319Z,840
2017-11-09T12:38:47.909Z,844
2017-11-09T12:39:00.178Z,840
2017-11-09T12:39:11.675Z,844
2017-11-09T12:39:27.165Z,840
2017-11-09T12:39:43.661Z,844
2017-11-09T12:39:56.154Z,844
2017-11-09T12:40:07.488Z,844
2017-11-09T12:40:19.054Z,848
2017-11-09T12:40:30.566Z,844
2017-11-09T12:40:42.173Z,844
2017-11-09T12:40:58.730Z,848
2017-11-09T12:41:14.245Z,844
2017-11-09T12:41:30.490Z,840
2017-11-09T12:41:42.937Z,844
2017-11-09T12:41:54.434Z,844
2017-11-09T12:42:17.869Z,840
2017-11-09T12:42:35.056Z,836
2017-11-09T12:42:50.777Z,832
2017-11-09T12:43:07.899Z,828
2017-11-09T12:43:23.593Z,824
2017-11-09T12:43:39.832Z,824
2017-11-09T12:43:56.102Z,816
2017-11-09T12:44:12.594Z,816
2017-11-09T12:44:28.835Z,812
2017-11-09T12:44:46.148Z,808
2017-11-09T12:45:01.673Z,804
2017-11-09T12:45:18.078Z,800
2017-11-09T12:45:48.026Z,800
2017-11-09T12:45:59.436Z,792
2017-11-09T12:46:10.949Z,792
2017-11-09T12:46:26.544Z,788
2017-11-09T12:46:42.780Z,784
2017-11-09T12:46:59.164Z,780
2017-11-09T12:47:11.503Z,780
2017-11-09T12:47:38.911Z,772
2017-11-09T12:47:50.530Z,768
2017-11-09T12:48:02.166Z,760
2017-11-09T12:48:18.683Z,752
2017-11-09T12:48:30.204Z,748
2017-11-09T12:48:41.701Z,740
2017-11-09T12:48:53.151Z,732
2017-11-09T12:49:08.740Z,724
2017-11-09T12:49:25.091Z,716
2017-11-09T12:49:37.494Z,708
2017-11-09T12:49:49.172Z,704
2017-11-09T12:50:00.534Z,692
2017-11-09T12:50:16.156Z,684
2017-11-09T12:50:28.461Z,676
2017-11-09T12:50:39.919Z,668
2017-11-09T12:50:52.225Z,664
2017-11-09T12:51:08.724Z,652
2017-11-09T12:51:21.021Z,648
2017-11-09T12:51:32.611Z,640
2017-11-09T12:51:44.250Z,636
2017-11-09T12:52:00.335Z,632
2017-11-09T12:52:12.125Z,628
2017-11-09T12:52:24.390Z,624
2017-11-09T12:52:36.910Z,624
2017-11-09T12:52:48.341Z,624
2017-11-09T12:53:00.032Z,620
2017-11-09T12:53:12.142Z,624
2017-11-09T12:53:28.608Z,628
2017-11-09T12:53:40.989Z,628
2017-11-09T12:53:52.427Z,636
2017-11-09T12:54:04.059Z,640
2017-11-09T12:54:15.592Z,640
2017-11-09T12:54:31.102Z,644
2017-11-09T12:54:43.463Z,652
2017-11-09T12:55:04.958Z,656
2017-11-09T12:55:16.213Z,660
2017-11-09T12:55:31.782Z,672
2017-11-09T12:55:44.105Z,672
2017-11-09T12:55:59.615Z,676
2017-11-09T12:56:12.002Z,676
2017-11-09T12:56:27.595Z,684
2017-11-09T12:56:39.947Z,684
2017-11-09T12:56:51.408Z,688
2017-11-09T12:57:02.969Z,688
2017-11-09T12:57:14.604Z,696
2017-11-09T12:57:30.096Z,692
2017-11-09T12:57:42.492Z,696
2017-11-09T12:57:54.083Z,696
2017-11-09T12:58:09.522Z,700
2017-11-09T12:58:22.054Z,704
2017-11-09T12:58:37.390Z,704
2017-11-09T12:58:49.796Z,704
2017-11-09T12:59:01.394Z,704
2017-11-09T12:59:36.966Z,708
2017-11-09T12:59:48.734Z,708
2017-11-09T13:00:10.063Z,712
2017-11-09T13:00:21.177Z,712
2017-11-09T13:00:32.664Z,712
2017-11-09T13:00:44.302Z,716
2017-11-09T13:00:56.110Z,712
2017-11-09T13:01:11.528Z,716
2017-11-09T13:01:23.663Z,716
2017-11-09T13:01:36.269Z,720
2017-11-09T13:01:48.505Z,716
2017-11-09T13:02:00.034Z,716
2017-11-09T13:02:11.525Z,720
2017-11-09T13:02:23.226Z,716
2017-11-09T13:02:34.733Z,716
2017-11-09T13:03:17.276Z,708
2017-11-09T13:03:32.805Z,708
2017-11-09T13:03:49.652Z,704
2017-11-09T13:04:05.527Z,700
2017-11-09T13:04:21.801Z,700
2017-11-09T13:04:38.175Z,696
2017-11-09T13:04:54.984Z,692
2017-11-09T13:05:10.769Z,692
2017-11-09T13:05:35.096Z,688
2017-11-09T13:05:54.169Z,688
2017-11-09T13:06:09.536Z,684
2017-11-09T13:06:26.318Z,680
2017-11-09T13:06:42.250Z,680
2017-11-09T13:06:58.686Z,680
2017-11-09T13:07:17.281Z,676
2017-11-09T13:07:32.759Z,676
2017-11-09T13:07:45.359Z,676
2017-11-09T13:07:56.693Z,676
2017-11-09T13:08:14.863Z,672
2017-11-09T13:08:26.204Z,672
2017-11-09T13:08:41.760Z,672
2017-11-09T13:08:58.128Z,672
2017-11-09T13:09:26.190Z,672
2017-11-09T13:09:37.877Z,672
2017-11-09T13:09:49.623Z,676
2017-11-09T13:10:01.039Z,676
2017-11-09T13:10:16.610Z,676
2017-11-09T13:10:29.002Z,676
2017-11-09T13:10:44.509Z,680
2017-11-09T13:11:01.018Z,680
2017-11-09T13:11:13.224Z,680
2017-11-09T13:11:28.846Z,680
2017-11-09T13:11:45.059Z,684
2017-11-09T13:11:57.450Z,680
2017-11-09T13:12:10.085Z,680
2017-11-09T13:12:22.277Z,680
2017-11-09T13:12:33.735Z,680
2017-11-09T13:12:49.305Z,680
2017-11-09T13:13:01.594Z,684
2017-11-09T13:13:17.164Z,684
2017-11-09T13:13:29.581Z,684
2017-11-09T13:13:45.145Z,680
2017-11-09T13:14:02.085Z,684
2017-11-09T13:14:13.851Z,680
2017-11-09T13:14:25.371Z,676
2017-11-09T13:14:36.861Z,676
2017-11-09T13:14:48.535Z,676
2017-11-09T13:15:04.112Z,676
2017-11-09T13:15:16.341Z,668
2017-11-09T13:15:27.902Z,672
2017-11-09T13:15:43.472Z,672
2017-11-09T13:15:59.887Z,668
2017-11-09T13:16:16.194Z,664
2017-11-09T13:16:32.549Z,664
2017-11-09T13:16:45.012Z,664
2017-11-09T13:16:56.538Z,660
2017-11-09T13:17:07.997Z,664
2017-11-09T13:17:19.625Z,660
2017-11-09T13:17:31.222Z,656
2017-11-09T13:17:42.691Z,660
2017-11-09T13:17:54.251Z,656
2017-11-09T13:18:20.893Z,660
2017-11-09T13:18:37.465Z,656
2017-11-09T13:18:54.324Z,656
2017-11-09T13:19:06.232Z,656
2017-11-09T13:19:17.840Z,656
2017-11-09T13:19:33.228Z,656
2017-11-09T13:19:49.582Z,656
2017-11-09T13:20:02.004Z,656
2017-11-09T13:20:17.534Z,656
2017-11-09T13:20:29.935Z,656
2017-11-09T13:20:45.345Z,656
2017-11-09T13:21:02.297Z,652
2017-11-09T13:21:18.073Z,652
2017-11-09T13:21:30.568Z,652
2017-11-09T13:21:42.153Z,652
2017-11-09T13:21:53.524Z,648
2017-11-09T13:22:05.388Z,652
2017-11-09T13:22:20.824Z,652
2017-11-09T13:22:37.067Z,648
2017-11-09T13:22:49.369Z,648
2017-11-09T13:23:01.157Z,648
2017-11-09T13:23:12.522Z,648
2017-11-09T13:23:28.093Z,648
2017-11-09T13:23:40.376Z,644
2017-11-09T13:23:52.219Z,644
2017-11-09T13:24:07.604Z,644
2017-11-09T13:24:23.980Z,644
2017-11-09T13:24:36.288Z,640
2017-11-09T13:24:51.978Z,640
2017-11-09T13:25:04.249Z,640
2017-11-09T13:25:19.965Z,636
2017-11-09T13:25:36.044Z,636
2017-11-09T13:25:53.029Z,628
2017-11-09T13:26:09.732Z,628
2017-11-09T13:26:21.144Z,624
2017-11-09T13:26:36.836Z,620
2017-11-09T13:26:49.176Z,620
2017-11-09T13:27:04.536Z,616
2017-11-09T13:27:17.009Z,612
2017-11-09T13:27:32.605Z,608
2017-11-09T13:27:48.857Z,600
2017-11-09T13:28:05.217Z,596
2017-11-09T13:28:29.618Z,588
2017-11-09T13:28:54.758Z,580
2017-11-09T13:29:10.124Z,572
2017-11-09T13:29:22.529Z,568
2017-11-09T13:29:34.107Z,564
2017-11-09T13:29:45.641Z,560
2017-11-09T13:29:57.143Z,556
2017-11-09T13:30:12.763Z,548
2017-11-09T13:30:25.101Z,544
2017-11-09T13:30:36.545Z,540
2017-11-09T13:30:52.897Z,532
2017-11-09T13:31:04.450Z,524
2017-11-09T13:31:15.995Z,520
2017-11-09T13:31:27.585Z,512
2017-11-09T13:31:43.217Z,504
2017-11-09T13:31:59.673Z,496
2017-11-09T13:32:11.935Z,492
2017-11-09T13:32:23.490Z,484
2017-11-09T13:32:34.963Z,480
2017-11-09T13:32:50.507Z,472
2017-11-09T13:33:30.687Z,464
2017-11-09T13:33:47.534Z,448
2017-11-09T13:34:04.461Z,436
2017-11-09T13:34:20.257Z,428
2017-11-09T13:34:37.478Z,424
2017-11-09T13:34:53.085Z,416
2017-11-09T13:35:07.707Z,412
2017-11-09T13:35:23.928Z,404
2017-11-09T13:35:36.308Z,404
2017-11-09T13:35:48.869Z,400
2017-11-09T13:36:00.791Z,392
2017-11-09T13:36:16.283Z,388
2017-11-09T13:36:32.636Z,384
2017-11-09T13:36:44.977Z,380
2017-11-09T13:37:00.643Z,376
2017-11-09T13:37:16.764Z,372
2017-11-09T13:37:33.321Z,368
2017-11-09T13:37:45.422Z,368
2017-11-09T13:37:57.088Z,364
2017-11-09T13:38:08.485Z,364
2017-11-09T13:38:24.150Z,356
2017-11-09T13:38:40.752Z,356
2017-11-09T13:38:56.994Z,352
2017-11-09T13:39:09.437Z,352
2017-11-09T13:39:24.820Z,352
2017-11-09T13:39:41.319Z,352
2017-11-09T13:39:57.842Z,348
2017-11-09T13:40:09.931Z,348
2017-11-09T13:40:21.553Z,344
2017-11-09T13:40:33.067Z,344
2017-11-09T13:40:44.608Z,340
2017-11-09T13:40:56.447Z,340
2017-11-09T13:41:07.751Z,340
2017-11-09T13:41:19.320Z,336
2017-11-09T13:41:34.749Z,332
2017-11-09T13:41:47.184Z,336
2017-11-09T13:41:58.774Z,336
2017-11-09T13:42:10.311Z,336
2017-11-09T13:42:21.881Z,336
2017-11-09T13:42:33.428Z,332
2017-11-09T13:42:44.994Z,336
2017-11-09T13:43:01.537Z,336
2017-11-09T13:43:12.896Z,340
2017-11-09T13:43:24.369Z,340
2017-11-09T13:43:36.999Z,340
2017-11-09T13:43:49.097Z,340
2017-11-09T13:44:04.711Z,344
2017-11-09T13:44:17.099Z,340
2017-11-09T13:44:32.529Z,344
2017-11-09T13:44:44.849Z,344
2017-11-09T13:44:56.447Z,348
2017-11-09T13:45:08.216Z,348
2017-11-09T13:45:19.547Z,344
2017-11-09T13:45:31.500Z,344
2017-11-09T13:45:42.667Z,344
2017-11-09T13:45:54.213Z,344
2017-11-09T13:46:09.951Z,348
2017-11-09T13:46:22.042Z,348
2017-11-09T13:46:33.824Z,348
2017-11-09T13:46:45.277Z,348
2017-11-09T13:46:56.829Z,348
2017-11-09T13:47:08.415Z,348
2017-11-09T13:47:19.893Z,352
2017-11-09T13:47:31.460Z,352
2017-11-09T13:47:43.163Z,352
2017-11-09T13:57:26.374Z,312
2017-11-09T13:57:41.868Z,308
2017-11-09T13:57:54.169Z,308
2017-11-09T13:58:05.819Z,304
2017-11-09T13:58:17.574Z,300
2017-11-09T13:58:33.792Z,296
2017-11-09T13:58:45.282Z,292
2017-11-09T13:58:56.725Z,292
2017-11-09T13:59:12.964Z,288
2017-11-09T13:59:28.515Z,284
2017-11-09T13:59:40.921Z,280
2017-11-09T13:59:56.690Z,280
2017-11-09T14:00:12.916Z,276
2017-11-09T14:00:29.242Z,272
2017-11-09T14:00:41.667Z,272
2017-11-09T14:00:57.145Z,268
2017-11-09T14:01:13.490Z,264
2017-11-09T14:01:25.863Z,264